SANT

Details ICAO SANT (TUC)
Name Teniente Benjamin Matienzo
Region Argentina
Timezone America/Argentina/Tucuman (UTC-3.0)
Plans Departing 53
Arriving 52
Stats Elevation 1,494 ft / 455 m (AMSL)
Location -26.840800° -65.104601°
Runways 1
Magnetic Variation 7.016° W
Sunrise 2018-05-27 11:00:30 UTC / 2018-05-27 08:00:30 Local
Sunset 2018-05-27 21:37:34 UTC / 2018-05-27 18:37:34 Local
Advertisement - Login to hide

Runways

ID Width Length Bearing (true) Bearing (mag) Surface Threshold Offset Overrun Length
01 151 ft / 46 m 9,523 ft / 2,903 m 9.80° 16.82° Concrete 0 ft / 0 m 98 ft / 30 m
19 151 ft / 46 m 9,523 ft / 2,903 m 189.80° 196.82° Concrete 0 ft / 0 m 98 ft / 30 m

Approach Navaids

Runway Type Ident Frequency Range Bearing (true) Bearing (mag) Slope Elevation
01 Localiser TU 109.90 MHz 18 nm / 33 km 9.42° 16.43° - 1,439 ft / 439 m (AMSL)
01 Glidescope TU 109.90 MHz 10 nm / 19 km 9.80° 16.82° 3.00° 1,496 ft / 456 m (AMSL)

Map

Weather


0- 5 10 15 20 25 30 35+ Temperature / ° C

Clouds and Precipitation
Forecast for 2018-05-27 12:00 UTC. Updated an hour ago

Ground ~20,000 ft ~40,000 ft Winds

METAR

SANT 271200Z 34004KT 8000 NSC 12/10 Q1016

TAF

TAF TAF SANT 271100Z 2712/2812 27005KT 8000 NSC TX26/2718Z TN15/2810Z BECMG 2414/2718 14005KT 9999 SCT040

Frequencies

Tower 119.50 MHz TUCUMAN TWR
Tower 118.35 MHz TUCUMAN TWR/Aux
Warning: Do not use this data for real-world aviation or navigation. No guarantee of current accuracy is given.